createdAt,value
2017-08-16T00:01:37.905Z,6.77
2017-08-16T00:04:05.857Z,5.40
2017-08-16T00:06:33.791Z,8.07
2017-08-16T00:09:01.797Z,6.57
2017-08-16T00:11:29.776Z,8.97
2017-08-16T00:13:57.427Z,7.03
2017-08-16T00:16:25.234Z,7.00
2017-08-16T00:18:52.816Z,8.47
2017-08-16T00:21:20.505Z,8.50
2017-08-16T00:23:48.178Z,7.77
2017-08-16T00:26:15.840Z,7.63
2017-08-16T00:28:43.891Z,7.87
2017-08-16T00:31:11.837Z,7.27
2017-08-16T00:33:39.801Z,7.17
2017-08-16T00:36:07.547Z,8.23
2017-08-16T00:38:35.173Z,8.07
2017-08-16T00:41:02.822Z,7.60
2017-08-16T00:43:30.600Z,7.80
2017-08-16T00:45:58.412Z,8.00
2017-08-16T00:48:26.381Z,9.20
2017-08-16T00:50:54.465Z,8.13
2017-08-16T00:53:22.375Z,7.30
2017-08-16T00:55:50.081Z,8.80
2017-08-16T00:58:17.973Z,8.23
2017-08-16T01:00:45.761Z,9.40
2017-08-16T01:03:13.606Z,8.77
2017-08-16T01:05:41.299Z,8.40
2017-08-16T01:08:09.013Z,8.93
2017-08-16T01:10:37.034Z,9.60
2017-08-16T01:13:05.003Z,7.83
2017-08-16T01:15:32.768Z,7.90
2017-08-16T01:18:00.635Z,8.83
2017-08-16T01:20:28.712Z,8.50
2017-08-16T01:22:56.414Z,8.57
2017-08-16T01:25:24.440Z,9.10
2017-08-16T01:27:52.153Z,8.90
2017-08-16T01:30:20.169Z,7.43
2017-08-16T01:32:47.831Z,8.43
2017-08-16T01:35:15.904Z,9.60
2017-08-16T01:37:43.667Z,7.37
2017-08-16T01:40:11.641Z,8.20
2017-08-16T01:42:39.555Z,8.03
2017-08-16T01:45:07.362Z,8.70
2017-08-16T01:47:35.036Z,8.20
2017-08-16T01:50:02.691Z,8.23
2017-08-16T01:52:30.524Z,7.20
2017-08-16T01:54:58.342Z,8.63
2017-08-16T01:57:26.300Z,7.53
2017-08-16T01:59:53.949Z,8.50
2017-08-16T02:02:21.611Z,9.00
2017-08-16T02:04:49.458Z,8.77
2017-08-16T02:07:17.358Z,8.73
2017-08-16T02:09:45.016Z,8.90
2017-08-16T02:12:13.092Z,8.33
2017-08-16T02:14:41.003Z,9.70
2017-08-16T02:17:09.843Z,8.07
2017-08-16T02:19:37.561Z,9.50
2017-08-16T02:22:05.522Z,9.83
2017-08-16T02:24:33.242Z,7.33
2017-08-16T02:27:01.311Z,7.97
2017-08-16T02:29:28.963Z,8.90
2017-08-16T02:31:56.629Z,8.40
2017-08-16T02:34:24.280Z,12.77
2017-08-16T02:36:51.963Z,9.30
2017-08-16T02:39:20.098Z,8.90
2017-08-16T02:41:47.916Z,8.77
2017-08-16T02:44:15.654Z,8.77
2017-08-16T02:46:43.620Z,8.47
2017-08-16T02:49:11.300Z,8.33
2017-08-16T02:51:39.283Z,8.00
2017-08-16T02:54:07.222Z,8.60
2017-08-16T02:56:35.265Z,8.20
2017-08-16T02:59:02.988Z,8.50
2017-08-16T03:01:30.701Z,8.40
2017-08-16T03:03:58.665Z,9.20
2017-08-16T03:06:26.354Z,10.70
2017-08-16T03:08:54.027Z,11.33
2017-08-16T03:11:22.100Z,10.80
2017-08-16T03:13:49.930Z,7.77
2017-08-16T03:16:17.673Z,9.00
2017-08-16T03:18:45.667Z,11.27
2017-08-16T03:21:13.614Z,10.57
2017-08-16T03:23:41.580Z,10.40
2017-08-16T03:26:09.444Z,9.27
2017-08-16T03:28:37.066Z,11.53
2017-08-16T03:31:05.001Z,9.30
2017-08-16T03:33:32.993Z,10.30
2017-08-16T03:36:00.937Z,7.60
2017-08-16T03:38:28.839Z,9.77
2017-08-16T03:40:56.912Z,8.33
2017-08-16T03:43:24.615Z,9.43
2017-08-16T03:45:52.329Z,9.43
2017-08-16T03:48:20.308Z,10.70
2017-08-16T03:50:48.140Z,9.20
2017-08-16T03:53:16.007Z,9.27
2017-08-16T03:55:43.750Z,9.97
2017-08-16T03:58:11.776Z,9.90
2017-08-16T04:00:39.485Z,8.77
2017-08-16T04:03:07.297Z,9.03
2017-08-16T04:05:35.042Z,8.43
2017-08-16T04:08:03.033Z,8.07
2017-08-16T04:10:30.903Z,7.30
2017-08-16T04:12:58.772Z,7.47
2017-08-16T04:15:26.483Z,7.90
2017-08-16T04:17:54.353Z,7.77
2017-08-16T04:20:22.317Z,6.20
2017-08-16T04:22:50.239Z,8.23
2017-08-16T04:25:18.311Z,6.47
2017-08-16T04:27:46.145Z,6.73
2017-08-16T04:30:13.840Z,5.77
2017-08-16T04:32:41.707Z,6.10
2017-08-16T04:35:09.548Z,6.43
2017-08-16T04:37:37.339Z,5.67
2017-08-16T04:40:05.306Z,5.80
2017-08-16T04:42:33.020Z,6.03
2017-08-16T04:45:01.316Z,6.63
2017-08-16T04:47:29.105Z,6.63
2017-08-16T04:49:56.826Z,5.50
2017-08-16T04:52:24.641Z,6.30
2017-08-16T04:54:52.506Z,6.10
2017-08-16T04:57:20.356Z,5.93
2017-08-16T04:59:48.218Z,6.27
2017-08-16T05:02:16.110Z,4.87
2017-08-16T05:04:43.828Z,5.87
2017-08-16T05:07:11.794Z,6.43
2017-08-16T05:09:39.615Z,6.83
2017-08-16T05:12:07.576Z,5.80
2017-08-16T05:14:35.420Z,6.47
2017-08-16T05:17:03.517Z,6.30
2017-08-16T05:19:31.355Z,6.50
2017-08-16T05:21:59.222Z,5.90
2017-08-16T05:24:27.114Z,6.80
2017-08-16T05:26:55.188Z,6.00
2017-08-16T05:29:23.049Z,6.30
2017-08-16T05:31:51.125Z,5.70
2017-08-16T05:34:18.960Z,5.30
2017-08-16T05:36:46.827Z,5.30
2017-08-16T05:39:14.892Z,6.23
2017-08-16T05:41:42.587Z,5.77
2017-08-16T05:44:10.255Z,5.97
2017-08-16T05:46:37.946Z,6.07
2017-08-16T05:49:05.763Z,5.67
2017-08-16T05:51:33.650Z,5.40
2017-08-16T05:54:01.649Z,7.77
2017-08-16T05:56:29.590Z,7.10
2017-08-16T05:58:57.427Z,7.37
2017-08-16T06:01:25.528Z,8.53
2017-08-16T06:03:53.246Z,9.90
2017-08-16T06:06:21.205Z,8.73
2017-08-16T06:08:49.077Z,7.70
2017-08-16T06:11:16.996Z,8.23
2017-08-16T06:13:44.714Z,7.70
2017-08-16T06:16:12.515Z,8.23
2017-08-16T06:18:40.473Z,6.23
2017-08-16T06:21:08.460Z,5.90
2017-08-16T06:23:36.535Z,5.60
2017-08-16T06:26:04.250Z,6.33
2017-08-16T06:28:32.269Z,6.03
2017-08-16T06:31:00.307Z,7.20
2017-08-16T06:33:28.001Z,6.53
2017-08-16T06:35:55.664Z,5.97
2017-08-16T06:38:23.531Z,6.53
2017-08-16T06:40:51.374Z,5.73
2017-08-16T06:43:19.121Z,5.43
2017-08-16T06:45:47.110Z,4.60
2017-08-16T06:48:14.791Z,5.83
2017-08-16T06:50:42.498Z,4.63
2017-08-16T06:53:10.526Z,4.27
2017-08-16T06:55:38.457Z,4.20
2017-08-16T06:58:06.448Z,4.17
2017-08-16T07:00:34.190Z,4.97
2017-08-16T07:03:01.997Z,5.37
2017-08-16T07:05:30.050Z,5.60
2017-08-16T07:07:57.932Z,5.00
2017-08-16T07:10:25.784Z,4.97
2017-08-16T07:12:53.627Z,4.50
2017-08-16T07:15:21.595Z,4.17
2017-08-16T07:17:49.437Z,5.00
2017-08-16T07:20:17.470Z,5.30
2017-08-16T07:22:45.397Z,5.13
2017-08-16T07:25:13.205Z,4.70
2017-08-16T07:27:41.278Z,4.40
2017-08-16T07:30:09.348Z,5.37
2017-08-16T07:32:37.069Z,5.90
2017-08-16T07:35:04.876Z,5.77
2017-08-16T07:37:32.949Z,4.53
2017-08-16T07:40:00.610Z,4.80
2017-08-16T07:42:28.337Z,5.50
2017-08-16T07:44:56.327Z,5.63
2017-08-16T07:47:24.195Z,5.40
2017-08-16T07:49:52.079Z,4.67
2017-08-16T07:52:20.006Z,4.87
2017-08-16T07:54:48.019Z,5.00
2017-08-16T07:57:15.814Z,4.97
2017-08-16T07:59:43.540Z,4.43
2017-08-16T08:02:11.400Z,5.43
2017-08-16T08:04:39.279Z,6.77
2017-08-16T08:07:07.144Z,5.13
2017-08-16T08:09:34.852Z,4.90
2017-08-16T08:12:02.878Z,6.30
2017-08-16T08:14:30.686Z,6.20
2017-08-16T08:16:58.530Z,5.33
2017-08-16T08:19:26.479Z,5.57
2017-08-16T08:21:54.552Z,5.20
2017-08-16T08:24:22.482Z,5.17
2017-08-16T08:26:50.343Z,5.47
2017-08-16T08:29:18.357Z,4.93
2017-08-16T08:31:46.207Z,4.12
2017-08-16T08:34:14.090Z,4.43
2017-08-16T08:36:41.752Z,5.13
2017-08-16T08:39:09.619Z,5.33
2017-08-16T08:41:37.487Z,5.77
2017-08-16T08:44:05.559Z,4.60
2017-08-16T08:46:33.408Z,4.93
2017-08-16T08:49:01.272Z,5.83
2017-08-16T08:51:28.948Z,5.63
2017-08-16T08:53:56.787Z,5.23
2017-08-16T08:56:24.687Z,6.23
2017-08-16T08:58:52.722Z,4.80
2017-08-16T09:01:20.465Z,4.90
2017-08-16T09:03:48.454Z,5.77
2017-08-16T09:06:16.225Z,6.33
2017-08-16T09:08:44.069Z,7.03
2017-08-16T09:11:11.951Z,5.60
2017-08-16T09:13:39.926Z,5.70
2017-08-16T09:16:07.646Z,5.73
2017-08-16T09:18:35.387Z,5.80
2017-08-16T09:21:03.355Z,5.90
2017-08-16T09:23:31.194Z,6.10
2017-08-16T09:25:59.191Z,6.67
2017-08-16T09:28:26.956Z,5.63
2017-08-16T09:30:54.617Z,6.50
2017-08-16T09:33:22.276Z,5.97
2017-08-16T09:35:50.131Z,5.40
2017-08-16T09:38:18.011Z,5.37
2017-08-16T09:40:45.669Z,6.27
2017-08-16T09:43:13.540Z,5.27
2017-08-16T09:45:41.408Z,5.83
2017-08-16T09:48:09.121Z,5.30
2017-08-16T09:50:37.145Z,6.30
2017-08-16T09:53:04.789Z,6.85
2017-08-16T09:55:32.673Z,5.97
2017-08-16T09:58:00.690Z,6.37
2017-08-16T10:00:28.611Z,6.60
2017-08-16T10:02:56.599Z,5.60
2017-08-16T10:05:24.551Z,5.97
2017-08-16T10:07:52.205Z,5.55
2017-08-16T10:10:20.050Z,5.82
2017-08-16T10:12:47.814Z,6.35
2017-08-16T10:15:15.657Z,5.53
2017-08-16T10:17:43.629Z,6.45
2017-08-16T10:20:11.493Z,6.43
2017-08-16T10:22:39.100Z,5.50
2017-08-16T10:25:06.737Z,5.43
2017-08-16T10:27:34.533Z,5.93
2017-08-16T10:30:02.181Z,5.12
2017-08-16T10:32:29.764Z,6.78
2017-08-16T10:34:57.674Z,5.05
2017-08-16T10:37:25.385Z,5.82
2017-08-16T10:39:53.229Z,5.75
2017-08-16T10:42:20.896Z,6.25
2017-08-16T10:44:48.495Z,5.75
2017-08-16T10:47:16.087Z,5.10
2017-08-16T10:49:44.075Z,5.55
2017-08-16T10:52:11.744Z,6.15
2017-08-16T10:54:39.620Z,5.68
2017-08-16T10:57:07.703Z,5.65
2017-08-16T10:59:37.493Z,5.40
2017-08-16T11:02:07.751Z,5.45
2017-08-16T11:04:37.767Z,5.43
2017-08-16T11:07:08.029Z,4.93
2017-08-16T11:09:36.034Z,5.97
2017-08-16T11:12:03.684Z,5.37
2017-08-16T11:14:31.580Z,4.97
2017-08-16T11:16:59.418Z,5.47
2017-08-16T11:19:27.106Z,5.82
2017-08-16T11:21:55.128Z,5.07
2017-08-16T11:24:23.019Z,5.60
2017-08-16T11:26:50.702Z,6.75
2017-08-16T11:29:18.564Z,5.05
2017-08-16T11:31:46.238Z,6.37
2017-08-16T11:34:14.304Z,5.40
2017-08-16T11:36:42.030Z,5.30
2017-08-16T11:39:09.877Z,5.03
2017-08-16T11:41:37.533Z,7.57
2017-08-16T11:44:05.117Z,4.87
2017-08-16T11:46:32.717Z,5.55
2017-08-16T11:49:00.380Z,5.30
2017-08-16T11:51:28.065Z,5.20
2017-08-16T11:53:56.011Z,5.72
2017-08-16T11:56:23.885Z,5.28
2017-08-16T11:58:51.540Z,4.50
2017-08-16T12:01:19.260Z,4.68
2017-08-16T12:03:47.277Z,5.53
2017-08-16T12:06:14.935Z,5.53
2017-08-16T12:08:42.784Z,5.72
2017-08-16T12:11:10.463Z,5.97
2017-08-16T12:13:38.312Z,4.57
2017-08-16T12:16:05.894Z,4.93
2017-08-16T12:18:33.660Z,4.90
2017-08-16T12:21:01.250Z,6.30
2017-08-16T12:23:28.985Z,6.23
2017-08-16T12:25:56.708Z,5.80
2017-08-16T12:28:24.667Z,6.30
2017-08-16T12:30:52.584Z,5.87
2017-08-16T12:33:20.654Z,6.13
2017-08-16T12:35:48.319Z,6.07
2017-08-16T12:38:16.187Z,6.70
2017-08-16T12:40:43.846Z,5.97
2017-08-16T12:43:11.555Z,6.03
2017-08-16T12:45:39.422Z,5.00
2017-08-16T12:48:07.314Z,5.30
2017-08-16T12:50:34.893Z,6.07
2017-08-16T12:55:35.342Z,5.30
2017-08-16T12:58:03.382Z,5.33
2017-08-16T13:00:31.076Z,6.40
2017-08-16T13:02:59.154Z,5.60
2017-08-16T13:05:26.884Z,4.93
2017-08-16T13:07:54.876Z,6.33
2017-08-16T13:10:22.519Z,6.47
2017-08-16T13:12:50.213Z,5.63
2017-08-16T13:15:17.870Z,5.70
2017-08-16T13:17:45.945Z,6.47
2017-08-16T13:20:13.663Z,6.83
2017-08-16T13:22:41.629Z,5.53
2017-08-16T13:25:09.444Z,6.70
2017-08-16T13:27:37.194Z,6.23
2017-08-16T13:30:04.804Z,6.40
2017-08-16T13:32:32.800Z,6.30
2017-08-16T13:35:00.767Z,6.00
2017-08-16T13:37:28.675Z,5.80
2017-08-16T13:39:56.677Z,5.73
2017-08-16T13:42:24.514Z,5.10
2017-08-16T13:44:52.336Z,7.10
2017-08-16T13:47:20.327Z,5.80
2017-08-16T13:49:48.008Z,5.70
2017-08-16T13:52:15.657Z,6.60
2017-08-16T13:54:43.380Z,8.30
2017-08-16T13:57:10.990Z,6.50
2017-08-16T13:59:38.656Z,5.67
2017-08-16T14:02:06.305Z,5.47
2017-08-16T14:04:34.390Z,5.60
2017-08-16T14:07:02.146Z,6.00
2017-08-16T14:09:29.981Z,5.40
2017-08-16T14:11:57.771Z,6.73
2017-08-16T14:14:25.450Z,5.23
2017-08-16T14:16:53.312Z,6.20
2017-08-16T14:19:20.980Z,6.27
2017-08-16T14:21:48.917Z,5.97
2017-08-16T14:24:16.638Z,5.87
2017-08-16T14:26:44.433Z,6.17
2017-08-16T14:29:12.446Z,6.33
2017-08-16T14:31:40.306Z,5.60
2017-08-16T14:34:08.166Z,4.83
2017-08-16T14:36:36.047Z,8.40
2017-08-16T14:39:03.907Z,5.70
2017-08-16T14:41:31.760Z,6.20
2017-08-16T14:43:59.651Z,5.40
2017-08-16T14:46:27.645Z,5.83
2017-08-16T14:48:55.484Z,6.80
2017-08-16T14:51:23.360Z,5.80
2017-08-16T14:53:51.271Z,7.03
2017-08-16T14:56:18.981Z,5.10
2017-08-16T14:58:46.709Z,4.90
2017-08-16T15:01:14.698Z,5.50
2017-08-16T15:03:42.689Z,6.60
2017-08-16T15:06:10.510Z,5.23
2017-08-16T15:08:38.310Z,4.73
2017-08-16T15:11:06.183Z,5.40
2017-08-16T15:13:33.910Z,5.70
2017-08-16T15:16:01.901Z,6.00
2017-08-16T15:18:29.694Z,6.30
2017-08-16T15:20:57.644Z,5.30
2017-08-16T15:23:25.493Z,5.70
2017-08-16T15:25:53.159Z,5.80
2017-08-16T15:28:21.009Z,5.77
2017-08-16T15:30:48.707Z,5.40
2017-08-16T15:33:17.787Z,5.70
2017-08-16T15:35:45.537Z,6.30
2017-08-16T15:38:13.186Z,4.80
2017-08-16T15:40:40.845Z,5.40
2017-08-16T15:43:08.454Z,5.67
2017-08-16T15:45:36.108Z,5.17
2017-08-16T15:48:03.707Z,5.43
2017-08-16T15:50:31.638Z,9.03
2017-08-16T15:52:59.295Z,8.43
2017-08-16T15:55:26.917Z,10.57
2017-08-16T15:57:54.514Z,7.43
2017-08-16T16:00:22.207Z,6.13
2017-08-16T16:02:49.789Z,4.73
2017-08-16T16:05:17.390Z,6.50
2017-08-16T16:07:45.202Z,5.20
2017-08-16T16:10:12.993Z,6.07
2017-08-16T16:12:40.582Z,6.17
2017-08-16T16:15:08.251Z,5.67
2017-08-16T16:17:35.863Z,5.83
2017-08-16T16:20:03.485Z,6.97
2017-08-16T16:22:31.171Z,6.23
2017-08-16T16:24:58.777Z,5.70
2017-08-16T16:27:26.366Z,5.43
2017-08-16T16:29:54.030Z,5.77
2017-08-16T16:32:21.637Z,6.03
2017-08-16T16:34:49.251Z,6.90
2017-08-16T16:37:16.943Z,7.50
2017-08-16T16:39:44.657Z,7.53
2017-08-16T16:42:12.528Z,6.10
2017-08-16T16:44:40.245Z,7.70
2017-08-16T16:47:07.865Z,8.60
2017-08-16T16:49:35.593Z,6.83
2017-08-16T16:52:03.502Z,6.00
2017-08-16T16:54:32.044Z,6.97
2017-08-16T16:56:59.631Z,6.33
2017-08-16T16:59:27.319Z,6.63
2017-08-16T17:01:54.906Z,7.27
2017-08-16T17:04:22.612Z,6.50
2017-08-16T17:06:50.276Z,7.17
2017-08-16T17:09:17.899Z,7.27
2017-08-16T17:11:45.497Z,17.43
2017-08-16T17:14:13.168Z,7.67
2017-08-16T17:16:40.755Z,9.90
2017-08-16T17:19:08.369Z,7.17
2017-08-16T17:21:36.018Z,8.20
2017-08-16T17:24:03.639Z,7.00
2017-08-16T17:26:31.286Z,7.93
2017-08-16T17:28:58.947Z,7.57
2017-08-16T17:31:26.554Z,8.70
2017-08-16T17:33:54.131Z,7.30
2017-08-16T17:36:21.787Z,9.17
2017-08-16T17:38:49.491Z,8.70
2017-08-16T17:41:17.127Z,10.33
2017-08-16T17:43:44.791Z,9.87
2017-08-16T17:46:12.410Z,8.47
2017-08-16T17:48:40.032Z,8.80
2017-08-16T17:51:08.108Z,9.43
2017-08-16T17:53:35.767Z,9.50
2017-08-16T17:56:03.600Z,9.27
2017-08-16T17:58:31.289Z,7.90
2017-08-16T18:00:58.896Z,8.03
2017-08-16T18:03:26.679Z,8.20
2017-08-16T18:05:54.469Z,9.17
2017-08-16T18:08:22.180Z,8.93
2017-08-16T18:10:50.120Z,8.50
2017-08-16T18:13:17.889Z,9.03
2017-08-16T18:15:45.536Z,9.00
2017-08-16T18:18:13.256Z,7.47
2017-08-16T18:20:41.061Z,8.70
2017-08-16T18:23:08.720Z,9.93
2017-08-16T18:25:36.577Z,9.17
2017-08-16T18:28:04.264Z,9.63
2017-08-16T18:30:32.333Z,9.43
2017-08-16T18:33:00.178Z,8.83
2017-08-16T18:35:27.863Z,9.40
2017-08-16T18:37:55.519Z,9.03
2017-08-16T18:40:23.391Z,10.03
2017-08-16T18:42:51.254Z,8.73
2017-08-16T18:45:19.136Z,8.77
2017-08-16T18:47:47.177Z,8.87
2017-08-16T18:50:15.127Z,9.13
2017-08-16T18:52:43.125Z,8.67
2017-08-16T18:55:11.294Z,7.93
2017-08-16T18:57:39.946Z,9.50
2017-08-16T19:00:08.461Z,11.47
2017-08-16T19:02:37.086Z,10.97
2017-08-16T19:05:05.804Z,9.33
2017-08-16T19:07:34.677Z,9.70
2017-08-16T19:10:03.451Z,9.93
2017-08-16T19:12:32.478Z,9.00
2017-08-16T19:15:01.864Z,9.63
2017-08-16T19:17:30.841Z,9.13
2017-08-16T19:19:59.915Z,9.50
2017-08-16T19:22:28.638Z,9.60
2017-08-16T19:24:57.505Z,9.10
2017-08-16T19:27:26.284Z,8.80
2017-08-16T19:29:55.165Z,10.60
2017-08-16T19:32:24.111Z,8.90
2017-08-16T19:34:53.319Z,8.70
2017-08-16T19:37:21.985Z,8.57
2017-08-16T19:39:50.679Z,8.63
2017-08-16T19:42:19.707Z,9.60
2017-08-16T19:44:48.163Z,8.87
2017-08-16T19:47:16.311Z,10.27
2017-08-16T19:49:44.879Z,9.87
2017-08-16T19:52:13.245Z,9.73
2017-08-16T19:54:41.622Z,9.30
2017-08-16T19:57:09.705Z,9.07
2017-08-16T19:59:38.321Z,10.27
2017-08-16T20:02:06.355Z,9.63
2017-08-16T20:04:34.392Z,9.40
2017-08-16T20:07:02.287Z,9.90
2017-08-16T20:09:30.163Z,11.10
2017-08-16T20:11:58.671Z,10.33
2017-08-16T20:14:26.565Z,11.33
2017-08-16T20:16:54.588Z,10.80
2017-08-16T20:19:22.446Z,9.70
2017-08-16T20:21:50.288Z,10.37
2017-08-16T20:24:18.232Z,10.13
2017-08-16T20:26:46.218Z,12.20
2017-08-16T20:29:13.961Z,11.13
2017-08-16T20:31:41.979Z,12.07
2017-08-16T20:34:09.856Z,9.97
2017-08-16T20:36:37.562Z,9.97
2017-08-16T20:39:05.531Z,10.60
2017-08-16T20:41:33.234Z,9.70
2017-08-16T20:44:01.219Z,10.67
2017-08-16T20:46:28.976Z,11.70
2017-08-16T20:48:57.019Z,9.67
2017-08-16T20:51:24.770Z,11.53
2017-08-16T20:53:52.788Z,11.40
2017-08-16T20:56:20.805Z,11.00
2017-08-16T20:58:48.726Z,10.27
2017-08-16T21:01:16.389Z,9.70
2017-08-16T21:03:44.249Z,10.87
2017-08-16T21:06:11.918Z,10.60
2017-08-16T21:08:39.763Z,10.13
2017-08-16T21:11:07.801Z,11.40
2017-08-16T21:13:35.512Z,12.07
2017-08-16T21:16:03.413Z,12.10
2017-08-16T21:18:31.251Z,11.87
2017-08-16T21:20:58.909Z,11.77
2017-08-16T21:23:26.782Z,11.20
2017-08-16T21:25:54.708Z,11.03
2017-08-16T21:28:22.509Z,10.43
2017-08-16T21:30:50.239Z,11.30
2017-08-16T21:33:18.030Z,10.70
2017-08-16T21:35:45.778Z,11.70
2017-08-16T21:38:13.741Z,11.20
2017-08-16T21:40:41.597Z,11.10
2017-08-16T21:43:09.508Z,12.07
2017-08-16T21:45:37.343Z,11.70
2017-08-16T21:48:05.089Z,12.10
2017-08-16T21:50:33.005Z,12.50
2017-08-16T21:53:00.981Z,10.40
2017-08-16T21:55:29.007Z,10.73
2017-08-16T21:57:56.880Z,11.73
2017-08-16T22:00:24.572Z,10.77
2017-08-16T22:02:52.613Z,11.37
2017-08-16T22:05:20.310Z,11.10
2017-08-16T22:07:48.120Z,10.30
2017-08-16T22:10:15.835Z,11.10
2017-08-16T22:12:43.506Z,11.30
2017-08-16T22:15:11.165Z,10.47
2017-08-16T22:17:39.192Z,11.40
2017-08-16T22:20:06.929Z,11.80
2017-08-16T22:22:34.876Z,11.47
2017-08-16T22:25:02.634Z,10.13
2017-08-16T22:27:30.361Z,11.07
2017-08-16T22:29:57.969Z,12.03
2017-08-16T22:32:26.030Z,11.73
2017-08-16T22:34:53.884Z,10.30
2017-08-16T22:37:21.726Z,11.90
2017-08-16T22:39:49.474Z,10.67
2017-08-16T22:42:17.338Z,10.93
2017-08-16T22:44:45.165Z,10.90
2017-08-16T22:47:12.809Z,13.37
2017-08-16T22:49:40.542Z,10.03
2017-08-16T22:52:08.505Z,11.40
2017-08-16T22:54:36.325Z,10.70
2017-08-16T22:57:04.140Z,12.30
2017-08-16T22:59:32.106Z,10.73
2017-08-16T23:01:59.918Z,11.20
2017-08-16T23:04:27.890Z,11.50
2017-08-16T23:06:55.732Z,12.17
2017-08-16T23:09:23.418Z,12.60
2017-08-16T23:11:51.144Z,12.87
2017-08-16T23:14:19.108Z,14.27
2017-08-16T23:16:46.875Z,15.93
2017-08-16T23:19:14.842Z,13.30
2017-08-16T23:21:42.607Z,13.00
2017-08-16T23:24:10.405Z,14.30
2017-08-16T23:26:38.282Z,13.23
2017-08-16T23:29:06.037Z,14.00
2017-08-16T23:31:33.798Z,13.97
2017-08-16T23:34:01.744Z,11.50
2017-08-16T23:36:29.711Z,11.30
2017-08-16T23:38:57.404Z,13.17
2017-08-16T23:41:25.244Z,11.30
2017-08-16T23:43:53.145Z,11.10
2017-08-16T23:46:21.104Z,11.03
2017-08-16T23:48:48.883Z,11.07
2017-08-16T23:51:16.543Z,11.13
2017-08-16T23:53:44.457Z,11.03
2017-08-16T23:56:12.419Z,10.70
2017-08-16T23:58:40.016Z,12.20
